Time;durP1;ratioP1;P1;durP2;ratioP2;P2;SDS_P1;SDS_P2;PMS_P1;PMS_P2;Temp;Humidity;BMP_temperature;BMP_pressure;BME280_temperature;BME280_humidity;BME280_pressure;Samples;Min_cycle;Max_cycle;Signal;HPM_P1;HPM_P2
2021/04/19 00:01:44;;;;;;;25.72;16.82;;;;;;;3.76;76.81;96636.27;1813024;77;21210;-80
2021/04/19 00:04:11;;;;;;;23.47;16.65;;;;;;;3.74;76.86;96631.70;1819386;77;21277;-77
2021/04/19 00:06:39;;;;;;;22.93;14.90;;;;;;;3.71;76.90;96635.83;1812551;77;21060;-77
2021/04/19 00:09:07;;;;;;;21.87;15.23;;;;;;;3.67;76.99;96634.47;1811449;77;21404;-77
2021/04/19 00:11:34;;;;;;;24.45;17.45;;;;;;;3.64;77.08;96632.98;1805960;77;21316;-77
2021/04/19 00:14:00;;;;;;;22.42;15.78;;;;;;;3.65;77.13;96635.08;1817632;77;21334;-77
2021/04/19 00:16:26;;;;;;;25.15;16.05;;;;;;;3.65;77.06;96626.90;1813108;77;21318;-77
2021/04/19 00:18:52;;;;;;;26.62;17.12;;;;;;;3.66;77.11;96631.09;1814689;77;21097;-77
2021/04/19 00:21:19;;;;;;;20.77;15.90;;;;;;;3.66;77.21;96625.95;1814023;77;21051;-77
2021/04/19 00:23:45;;;;;;;24.00;16.50;;;;;;;3.66;77.24;96616.14;1811972;77;21315;-77
2021/04/19 00:26:12;;;;;;;25.10;17.05;;;;;;;3.65;77.32;96617.09;1807710;77;21037;-77
2021/04/19 00:28:38;;;;;;;24.20;17.40;;;;;;;3.62;77.37;96614.32;1805688;77;21106;-77
2021/04/19 00:31:05;;;;;;;25.10;17.95;;;;;;;3.60;77.51;96616.22;1817368;77;21463;-76
2021/04/19 00:33:31;;;;;;;24.85;17.92;;;;;;;3.57;77.61;96606.98;1803290;77;21095;-76
2021/04/19 00:35:57;;;;;;;22.95;15.38;;;;;;;3.58;77.69;96609.92;1813689;77;21125;-77
2021/04/19 00:38:23;;;;;;;22.02;15.75;;;;;;;3.60;77.69;96608.03;1785977;78;21079;-77
2021/04/19 00:40:51;;;;;;;24.15;17.17;;;;;;;3.64;77.64;96611.61;1810493;77;21112;-76
2021/04/19 00:43:17;;;;;;;24.98;17.12;;;;;;;3.67;77.67;96605.73;1805753;77;21091;-77
2021/04/19 00:45:43;;;;;;;23.27;16.40;;;;;;;3.68;77.66;96603.50;1814080;77;21328;-80
2021/04/19 00:48:09;;;;;;;23.05;16.00;;;;;;;3.67;77.70;96607.49;1815505;77;21244;-79
2021/04/19 00:50:35;;;;;;;24.95;17.17;;;;;;;3.66;77.78;96605.39;1807849;77;21145;-80
2021/04/19 00:53:03;;;;;;;24.40;16.35;;;;;;;3.65;77.86;96599.91;1808712;77;21048;-80
2021/04/19 00:55:29;;;;;;;22.95;15.88;;;;;;;3.63;77.94;96602.28;1811786;77;21092;-80
2021/04/19 00:57:55;;;;;;;21.35;15.13;;;;;;;3.64;77.96;96602.15;1785004;78;21111;-80
2021/04/19 01:00:29;;;;;;;22.55;15.85;;;;;;;3.68;78.20;96602.22;1816277;77;21108;-79
2021/04/19 01:02:55;;;;;;;22.52;16.10;;;;;;;3.68;78.20;96602.22;1818346;77;21141;-79
2021/04/19 01:05:30;;;;;;;23.32;16.12;;;;;;;3.72;77.95;96606.61;1809559;77;21126;-80
2021/04/19 01:07:56;;;;;;;23.65;16.40;;;;;;;3.74;78.03;96600.41;1814706;77;21158;-78
2021/04/19 01:10:22;;;;;;;21.68;14.85;;;;;;;3.78;77.96;96599.19;1823783;77;21100;-78
2021/04/19 01:12:49;;;;;;;23.90;16.37;;;;;;;3.77;77.93;96597.57;1821048;76;21091;-78
2021/04/19 01:15:15;;;;;;;24.57;16.37;;;;;;;3.71;77.92;96592.95;1819359;77;21226;-78
2021/04/19 01:17:43;;;;;;;25.27;16.75;;;;;;;3.72;77.99;96593.28;1816543;77;21314;-78
2021/04/19 01:20:11;;;;;;;25.10;17.48;;;;;;;3.72;77.93;96593.28;1808876;77;21059;-77
2021/04/19 01:22:39;;;;;;;24.10;16.25;;;;;;;3.75;77.87;96593.52;1815057;77;21115;-77
2021/04/19 01:25:07;;;;;;;23.10;14.87;;;;;;;3.77;77.82;96595.48;1813203;77;21092;-76
2021/04/19 01:27:33;;;;;;;22.98;15.75;;;;;;;3.76;77.78;96598.99;1817790;77;21421;-77
2021/04/19 01:29:59;;;;;;;19.87;14.43;;;;;;;3.75;77.84;96594.80;1822522;77;21279;-77
2021/04/19 01:32:25;;;;;;;22.40;15.35;;;;;;;3.73;77.92;96594.09;1820241;77;21080;-80
2021/04/19 01:34:51;;;;;;;22.93;15.90;;;;;;;3.70;77.95;96593.08;1819356;77;21221;-77
2021/04/19 01:37:17;;;;;;;24.65;16.02;;;;;;;3.68;78.02;96592.41;1821538;77;21451;-77
2021/04/19 01:39:45;;;;;;;23.75;16.80;;;;;;;3.68;78.03;96586.80;1824468;77;21139;-77
2021/04/19 01:42:11;;;;;;;19.23;14.47;;;;;;;3.70;78.02;96591.80;1827654;77;21072;-77
2021/04/19 01:44:37;;;;;;;20.92;14.75;;;;;;;3.72;78.00;96594.57;1824417;77;21306;-77
2021/04/19 01:47:04;;;;;;;20.62;15.00;;;;;;;3.73;77.99;96587.67;1820589;77;21131;-77
2021/04/19 01:49:30;;;;;;;20.72;14.87;;;;;;;3.68;78.06;96582.12;1825159;77;21127;-77
2021/04/19 01:51:56;;;;;;;20.25;14.68;;;;;;;3.70;78.15;96595.17;1820513;77;21083;-79
2021/04/19 01:54:22;;;;;;;21.50;15.15;;;;;;;3.64;78.19;96589.30;1823089;77;21045;-79
2021/04/19 01:56:48;;;;;;;21.57;14.93;;;;;;;3.65;78.23;96596.06;1820796;77;21126;-79
2021/04/19 01:59:14;;;;;;;21.37;15.53;;;;;;;3.66;78.17;96597.69;1812035;77;21051;-79
2021/04/19 02:02:12;;;;;;;20.88;15.68;;;;;;;3.69;78.16;96597.41;1814525;77;21091;-79
2021/04/19 02:05:11;;;;;;;23.73;17.07;;;;;;;3.72;78.11;96597.61;1809691;77;21337;-78
2021/04/19 02:08:02;;;;;;;26.95;18.67;;;;;;;3.74;78.11;96600.41;1802697;77;21297;-77
2021/04/19 02:10:47;;;;;;;26.33;17.92;;;;;;;3.74;78.21;96591.86;1807288;77;21330;-77
2021/04/19 02:13:52;;;;;;;27.37;18.23;;;;;;;3.74;78.27;96595.27;1746855;80;21102;-77
2021/04/19 02:16:41;;;;;;;23.65;16.17;;;;;;;3.72;78.32;96592.47;1810931;77;21087;-77
2021/04/19 02:19:36;;;;;;;21.57;15.68;;;;;;;3.68;78.28;96588.55;1812583;77;21108;-78
2021/04/19 02:22:24;;;;;;;24.25;16.48;;;;;;;3.66;78.25;96588.69;1815405;77;21151;-80
2021/04/19 02:24:54;;;;;;;23.87;16.82;;;;;;;3.67;78.25;96586.94;1804102;77;21104;-80
2021/04/19 02:27:25;;;;;;;25.48;18.37;;;;;;;3.68;78.26;96588.08;1812857;77;21138;-76
2021/04/19 02:29:52;;;;;;;29.65;19.62;;;;;;;3.68;78.32;96591.94;1798984;77;21087;-77
2021/04/19 02:32:22;;;;;;;28.00;18.60;;;;;;;3.69;78.39;96587.61;1800625;77;21115;-77
2021/04/19 02:34:49;;;;;;;27.50;19.37;;;;;;;3.67;78.47;96585.17;1805826;77;21146;-76
2021/04/19 02:37:16;;;;;;;28.85;19.27;;;;;;;3.64;78.51;96576.45;1807424;77;21589;-78
2021/04/19 02:39:45;;;;;;;28.98;19.98;;;;;;;3.58;78.58;96571.39;1801519;77;21086;-77
2021/04/19 02:42:11;;;;;;;31.95;21.65;;;;;;;3.60;78.56;96574.62;1816079;77;21368;-77
2021/04/19 02:44:38;;;;;;;29.12;20.77;;;;;;;3.61;78.56;96578.82;1815265;77;21101;-77
2021/04/19 02:47:05;;;;;;;29.52;20.37;;;;;;;3.63;78.55;96579.97;1809881;77;21147;-77
2021/04/19 02:49:32;;;;;;;30.70;19.82;;;;;;;3.65;78.57;96575.50;1805621;77;21215;-77
2021/04/19 02:51:59;;;;;;;32.48;21.30;;;;;;;3.64;78.59;96572.59;1791329;78;21100;-77
2021/04/19 02:54:26;;;;;;;36.95;24.30;;;;;;;3.62;78.65;96566.78;1817823;77;21073;-77
2021/04/19 02:56:52;;;;;;;29.42;19.77;;;;;;;3.61;78.77;96565.16;1822079;77;21055;-78
2021/04/19 02:59:19;;;;;;;27.35;18.62;;;;;;;3.56;78.80;96562.16;1808087;77;21466;-80
2021/04/19 03:01:48;;;;;;;26.97;18.15;;;;;;;3.61;78.78;96570.30;1804670;77;21252;-80
2021/04/19 03:04:16;;;;;;;28.15;18.37;;;;;;;3.62;78.69;96570.64;1811038;77;21122;-77
2021/04/19 03:06:45;;;;;;;26.23;18.95;;;;;;;3.64;78.66;96570.50;1810736;77;21224;-77
2021/04/19 03:09:11;;;;;;;26.87;18.52;;;;;;;3.64;78.72;96568.74;1815584;77;21088;-77
2021/04/19 03:11:45;;;;;;;27.37;18.10;;;;;;;3.62;78.67;96569.36;1808768;77;21383;-77
2021/04/19 03:14:12;;;;;;;24.87;18.87;;;;;;;3.59;78.73;96569.16;1811194;77;21088;-77
2021/04/19 03:16:41;;;;;;;29.60;20.20;;;;;;;3.58;78.74;96566.25;1806367;77;21086;-77
2021/04/19 03:19:09;;;;;;;33.10;22.27;;;;;;;3.55;78.82;96569.05;1813045;77;21101;-77
2021/04/19 03:21:36;;;;;;;31.17;21.00;;;;;;;3.55;78.82;96561.35;1812196;77;21084;-77
2021/04/19 03:24:05;;;;;;;27.93;21.15;;;;;;;3.57;78.82;96567.64;1785125;78;21114;-77
2021/04/19 03:26:32;;;;;;;31.17;21.40;;;;;;;3.60;78.81;96564.35;1816331;77;21231;-80
2021/04/19 03:28:59;;;;;;;34.65;25.27;;;;;;;3.63;78.82;96568.41;1778990;77;21072;-80
2021/04/19 03:31:35;;;;;;;36.23;25.02;;;;;;;3.64;78.87;96557.66;1822393;77;21139;-80
2021/04/19 03:34:06;;;;;;;35.98;24.63;;;;;;;3.61;78.95;96562.12;1815808;77;21220;-79
2021/04/19 03:36:33;;;;;;;33.30;23.52;;;;;;;3.59;78.99;96564.02;1802314;77;21319;-77
2021/04/19 03:38:59;;;;;;;31.57;22.58;;;;;;;3.56;79.03;96553.98;1817952;77;21106;-76
2021/04/19 03:41:25;;;;;;;29.37;20.12;;;;;;;3.56;79.06;96551.41;1749469;77;21093;-76
2021/04/19 03:43:56;;;;;;;25.30;18.50;;;;;;;3.58;78.96;96555.16;1810798;77;21995;-76
2021/04/19 03:46:23;;;;;;;26.35;18.92;;;;;;;3.60;78.89;96554.08;1809363;77;21492;-76
2021/04/19 03:49:03;;;;;;;27.17;17.23;;;;;;;3.60;78.83;96552.79;1819328;77;21226;-76
2021/04/19 03:51:28;;;;;;;23.98;17.02;;;;;;;3.58;78.82;96552.12;1811280;77;21122;-76
2021/04/19 03:53:55;;;;;;;27.52;19.10;;;;;;;3.56;78.81;96560.41;1811137;77;21088;-76
2021/04/19 03:56:21;;;;;;;21.75;16.10;;;;;;;3.55;78.92;96560.54;1813695;77;21096;-76
2021/04/19 03:58:47;;;;;;;23.25;17.52;;;;;;;3.52;78.98;96564.67;1812438;78;21345;-76
2021/04/19 04:01:13;;;;;;;21.25;15.15;;;;;;;3.49;78.95;96563.66;1782078;79;21511;-76
2021/04/19 04:03:39;;;;;;;19.45;13.70;;;;;;;3.48;78.87;96571.84;1752255;79;21098;-76
2021/04/19 04:06:05;;;;;;;19.92;13.15;;;;;;;3.44;78.77;96561.97;1787612;79;21116;-76
2021/04/19 04:08:31;;;;;;;19.62;13.98;;;;;;;3.51;78.77;96569.47;1793500;79;21112;-76
2021/04/19 04:10:57;;;;;;;20.02;14.87;;;;;;;3.52;78.81;96565.95;1774991;79;21248;-76
2021/04/19 04:13:25;;;;;;;22.48;16.35;;;;;;;3.55;78.86;96560.06;1787625;79;21203;-76
2021/04/19 04:15:56;;;;;;;20.05;14.40;;;;;;;3.57;78.86;96561.22;1780858;79;21121;-76
2021/04/19 04:18:22;;;;;;;23.00;16.75;;;;;;;3.57;78.92;96562.02;1789501;79;21332;-77
2021/04/19 04:20:48;;;;;;;30.55;21.62;;;;;;;3.58;78.95;96556.44;1793375;79;21084;-79
2021/04/19 04:23:15;;;;;;;36.88;24.25;;;;;;;3.63;79.02;96560.70;1785207;79;21552;-79
2021/04/19 04:25:41;;;;;;;37.40;25.60;;;;;;;3.69;78.93;96558.05;1780548;79;21137;-79
2021/04/19 04:28:07;;;;;;;41.25;26.75;;;;;;;3.72;78.89;96559.06;1795007;79;21075;-75
2021/04/19 04:30:37;;;;;;;40.17;27.17;;;;;;;3.75;78.90;96553.68;1785138;79;21319;-77
2021/04/19 04:33:04;;;;;;;40.00;29.07;;;;;;;3.78;79.00;96554.69;1779371;79;21123;-77
2021/04/19 04:35:30;;;;;;;38.55;26.68;;;;;;;3.83;79.23;96546.90;1789653;79;21422;-77
2021/04/19 04:37:57;;;;;;;43.68;28.50;;;;;;;3.88;79.09;96555.48;1786355;79;21264;-79
2021/04/19 04:40:30;;;;;;;42.30;28.17;;;;;;;3.89;79.04;96552.77;1794672;79;21109;-77
2021/04/19 04:43:14;;;;;;;41.30;27.22;;;;;;;3.94;79.04;96554.14;1782834;79;21132;-76
2021/04/19 04:45:41;;;;;;;40.05;25.77;;;;;;;4.00;78.90;96556.16;1789335;79;21296;-76
2021/04/19 04:48:33;;;;;;;32.70;23.30;;;;;;;4.05;78.87;96553.50;1789914;79;21133;-76
2021/04/19 04:51:06;;;;;;;26.77;19.73;;;;;;;4.09;78.91;96551.50;1782476;79;21466;-76
2021/04/19 04:53:52;;;;;;;23.55;16.48;;;;;;;4.13;79.11;96549.79;1798186;79;21243;-76
2021/04/19 04:56:19;;;;;;;20.92;14.70;;;;;;;4.16;79.10;96543.55;1786673;79;21244;-76
2021/04/19 04:58:45;;;;;;;17.02;12.80;;;;;;;4.19;78.96;96548.42;1793166;77;21121;-76
2021/04/19 05:01:11;;;;;;;16.52;11.93;;;;;;;4.23;78.90;96543.36;1790010;78;21090;-75
2021/04/19 05:03:38;;;;;;;19.40;14.35;;;;;;;4.27;78.76;96546.45;1813779;78;21116;-76
2021/04/19 05:06:06;;;;;;;23.67;16.10;;;;;;;4.32;78.77;96546.84;1811374;77;21100;-76
2021/04/19 05:08:36;;;;;;;20.92;14.83;;;;;;;4.35;78.85;96544.80;1803404;77;21299;-76
2021/04/19 05:11:02;;;;;;;23.27;16.20;;;;;;;4.39;78.78;96544.03;1809587;77;21139;-76
2021/04/19 05:13:28;;;;;;;23.77;17.20;;;;;;;4.37;78.75;96543.38;1822002;77;21110;-76
2021/04/19 05:15:55;;;;;;;22.95;16.85;;;;;;;4.37;78.71;96539.52;1799745;78;21103;-76
2021/04/19 05:18:21;;;;;;;21.65;15.28;;;;;;;4.39;78.80;96544.03;1812785;77;21282;-76
2021/04/19 05:20:47;;;;;;;17.95;12.82;;;;;;;4.42;78.71;96536.88;1765523;79;21095;-75
2021/04/19 05:23:17;;;;;;;16.48;12.90;;;;;;;4.46;78.58;96530.97;1808202;77;21245;-76
2021/04/19 05:25:44;;;;;;;16.02;12.60;;;;;;;4.49;78.53;96534.06;1816563;77;21303;-76
2021/04/19 05:28:13;;;;;;;19.57;14.05;;;;;;;4.51;78.58;96530.06;1816397;78;21107;-76
2021/04/19 05:30:39;;;;;;;18.45;14.18;;;;;;;4.52;78.52;96534.26;1811466;77;21119;-76
2021/04/19 05:33:05;;;;;;;17.92;13.38;;;;;;;4.53;78.49;96530.25;1794258;78;21433;-76
2021/04/19 05:35:33;;;;;;;17.15;12.93;;;;;;;4.51;78.45;96532.16;1793117;78;21245;-76
2021/04/19 05:37:59;;;;;;;17.23;12.55;;;;;;;4.50;78.49;96533.59;1805068;77;21231;-76
2021/04/19 05:40:30;;;;;;;12.70;10.00;;;;;;;4.52;78.51;96540.22;1767008;79;21060;-76
2021/04/19 05:42:56;;;;;;;14.73;11.63;;;;;;;4.55;78.52;96536.55;1799944;78;21111;-76
2021/04/19 05:45:22;;;;;;;15.48;12.07;;;;;;;4.59;78.49;96534.52;1804120;77;21233;-76
2021/04/19 05:47:49;;;;;;;14.07;11.68;;;;;;;4.59;78.50;96532.77;1792634;77;21419;-76
2021/04/19 05:50:21;;;;;;;15.18;11.30;;;;;;;4.61;78.62;96533.43;1807793;77;21067;-76
2021/04/19 05:52:52;;;;;;;;;;;;;;;4.63;78.68;96532.81;1829720;77;22127;-76
2021/04/19 05:55:22;;;;;;;11.70;9.38;;;;;;;4.65;78.75;96533.47;1814221;77;20216;-79
2021/04/19 05:58:04;;;;;;;12.35;9.45;;;;;;;4.65;78.79;96540.38;1796125;77;21161;-76
2021/04/19 06:00:56;;;;;;;11.45;9.18;;;;;;;4.64;78.92;96537.00;1808953;78;21080;-79
2021/04/19 06:03:57;;;;;;;11.40;9.58;;;;;;;4.68;78.93;96538.34;1822519;77;21295;-79
2021/04/19 06:06:47;;;;;;;11.05;8.73;;;;;;;4.75;78.94;96541.17;1798693;77;21111;-75
2021/04/19 06:09:27;;;;;;;11.68;9.30;;;;;;;4.79;78.93;96536.88;1756552;79;21126;-79
2021/04/19 06:11:57;;;;;;;10.82;8.53;;;;;;;4.86;79.05;96537.59;1804740;77;21092;-79
2021/04/19 06:14:28;;;;;;;10.20;7.90;;;;;;;4.88;79.16;96540.83;1816814;77;21095;-82
2021/04/19 06:16:54;;;;;;;14.30;10.10;;;;;;;4.92;79.25;96540.42;1793461;77;21076;-78
2021/04/19 06:19:20;;;;;;;13.18;10.70;;;;;;;4.98;79.32;96542.89;1796464;77;21087;-79
2021/04/19 06:21:47;;;;;;;11.45;9.53;;;;;;;5.06;79.33;96544.29;1811752;77;21124;-78
2021/04/19 06:24:13;;;;;;;17.67;11.30;;;;;;;5.16;79.26;96545.51;1798778;78;21288;-78
2021/04/19 06:26:39;;;;;;;15.48;11.68;;;;;;;5.25;79.18;96548.05;1821363;77;21082;-78
2021/04/19 06:29:11;;;;;;;16.23;12.58;;;;;;;5.28;79.20;96541.31;1801873;77;21099;-79
2021/04/19 06:31:47;;;;;;;16.48;12.47;;;;;;;5.35;79.19;96546.68;1799873;77;21095;-77
2021/04/19 06:34:15;;;;;;;17.87;13.70;;;;;;;5.36;79.14;96546.53;1827028;77;21201;-77
2021/04/19 06:36:43;;;;;;;20.12;14.93;;;;;;;5.35;79.04;96544.91;1799566;77;21088;-79
2021/04/19 06:39:11;;;;;;;19.92;14.93;;;;;;;5.33;79.06;96553.75;1789917;77;21408;-83
2021/04/19 06:41:37;;;;;;;21.48;14.83;;;;;;;5.29;78.96;96551.95;1801740;77;21841;-79
2021/04/19 06:44:04;;;;;;;19.60;14.60;;;;;;;5.26;78.91;96554.81;1811664;77;21064;-79
2021/04/19 06:46:35;;;;;;;19.87;14.33;;;;;;;5.21;78.88;96563.47;1833186;77;21205;-76
2021/04/19 06:49:03;;;;;;;18.62;14.07;;;;;;;5.18;78.95;96559.86;1815381;77;21080;-79
2021/04/19 06:51:29;;;;;;;18.92;13.45;;;;;;;5.12;79.03;96560.45;1798215;77;21271;-79
2021/04/19 06:53:56;;;;;;;18.37;13.25;;;;;;;5.09;79.12;96560.73;1817335;78;21127;-78
2021/04/19 06:56:26;;;;;;;16.60;12.58;;;;;;;5.04;79.25;96561.17;1800948;77;21059;-79
2021/04/19 06:58:55;;;;;;;16.93;12.25;;;;;;;5.01;79.29;96566.59;1790257;77;21124;-76
2021/04/19 07:01:24;;;;;;;15.38;11.68;;;;;;;4.98;79.34;96569.93;1785701;77;21123;-76
2021/04/19 07:04:02;;;;;;;15.28;12.47;;;;;;;4.96;79.34;96573.94;1822558;77;21245;-76
2021/04/19 07:06:36;;;;;;;16.87;12.65;;;;;;;4.96;79.38;96576.52;1811878;77;21099;-77
2021/04/19 07:09:27;;;;;;;20.35;14.38;;;;;;;4.98;79.41;96576.37;1817897;77;21123;-76
2021/04/19 07:11:58;;;;;;;19.60;14.30;;;;;;;4.98;79.57;96575.89;1785090;78;21245;-79
2021/04/19 07:14:25;;;;;;;21.87;16.90;;;;;;;5.00;79.82;96573.17;1810840;78;21103;-79
2021/04/19 07:16:51;;;;;;;23.40;17.70;;;;;;;4.98;79.92;96573.31;1807294;77;21217;-76
2021/04/19 07:19:20;;;;;;;23.95;18.70;;;;;;;4.97;79.87;96578.61;1812576;77;21146;-78
2021/04/19 07:21:46;;;;;;;29.20;19.10;;;;;;;4.99;79.97;96580.56;1810874;77;21037;-80
2021/04/19 07:24:12;;;;;;;26.15;18.92;;;;;;;5.01;79.91;96579.46;1798460;77;21314;-78
2021/04/19 07:26:38;;;;;;;24.82;18.45;;;;;;;5.02;79.88;96581.56;1759886;78;21206;-80
2021/04/19 07:29:04;;;;;;;28.00;19.52;;;;;;;5.03;79.91;96580.61;1807964;77;21421;-79
2021/04/19 07:31:53;;;;;;;25.92;20.10;;;;;;;5.02;79.95;96581.56;1820720;77;21966;-76
2021/04/19 07:34:27;;;;;;;27.52;21.55;;;;;;;5.02;80.06;96577.70;1814012;77;21139;-76
2021/04/19 07:37:07;;;;;;;37.70;24.87;;;;;;;4.96;80.07;96576.99;1808189;77;21120;-78
2021/04/19 07:39:38;;;;;;;35.35;24.95;;;;;;;4.93;80.40;96579.37;1803369;77;21225;-76
2021/04/19 07:42:07;;;;;;;39.15;27.22;;;;;;;4.95;80.64;96576.66;1804029;77;21111;-76
2021/04/19 07:44:52;;;;;;;45.60;30.92;;;;;;;5.03;80.67;96580.61;1782849;78;21077;-80
2021/04/19 07:47:42;;;;;;;49.98;33.55;;;;;;;5.10;80.50;96581.20;1806441;78;21086;-76
2021/04/19 07:50:17;;;;;;;51.20;35.30;;;;;;;5.12;80.36;96583.16;1783033;78;21090;-76
2021/04/19 07:53:05;;;;;;;54.65;39.03;;;;;;;5.15;80.46;96581.23;1794565;78;21092;-76
2021/04/19 07:55:40;;;;;;;62.05;41.77;;;;;;;5.21;80.77;96581.50;1791105;78;21145;-76
2021/04/19 07:58:24;;;;;;;64.05;42.60;;;;;;;5.29;80.94;96582.05;1793372;78;21532;-77
2021/04/19 08:00:53;;;;;;;69.55;47.23;;;;;;;5.39;81.02;96580.25;1783689;78;21125;-78
2021/04/19 08:03:19;;;;;;;66.85;45.12;;;;;;;5.48;81.02;96575.50;1793277;78;21126;-77
2021/04/19 08:05:51;;;;;;;67.97;46.25;;;;;;;5.59;81.01;96574.48;1799481;78;21354;-76
2021/04/19 08:08:21;;;;;;;70.03;49.67;;;;;;;5.66;80.79;96570.36;1782732;78;21205;-76
2021/04/19 08:10:47;;;;;;;62.90;45.92;;;;;;;5.71;80.71;96566.88;1801645;78;21138;-76
2021/04/19 08:13:17;;;;;;;66.05;46.10;;;;;;;5.80;80.70;96568.56;1796464;78;21087;-76
2021/04/19 08:15:46;;;;;;;63.20;45.03;;;;;;;5.88;80.63;96573.81;1776003;78;21147;-79
2021/04/19 08:18:18;;;;;;;56.00;40.03;;;;;;;5.98;80.45;96566.00;1793406;78;21492;-79
2021/04/19 08:20:57;;;;;;;53.98;37.55;;;;;;;6.07;80.38;96565.61;1749701;80;21075;-77
2021/04/19 08:23:23;;;;;;;55.38;41.25;;;;;;;6.16;80.23;96563.41;1759720;80;21152;-77
2021/04/19 08:25:52;;;;;;;56.45;40.88;;;;;;;6.23;80.19;96562.67;1720161;82;21075;-77
2021/04/19 08:28:23;;;;;;;54.67;40.40;;;;;;;6.32;80.31;96566.11;1760134;81;21224;-77
2021/04/19 08:30:55;;;;;;;50.50;36.65;;;;;;;6.40;80.07;96567.47;1702548;82;21343;-78
2021/04/19 08:33:21;;;;;;;;;;;;;;;6.45;79.88;96567.82;1706933;83;21501;-78
2021/04/19 08:35:47;;;;;;;51.37;36.05;;;;;;;6.55;79.93;96563.37;1723507;81;20148;-80
2021/04/19 08:38:19;;;;;;;53.63;37.75;;;;;;;6.65;79.96;96565.84;1725782;81;21276;-79
2021/04/19 08:40:45;;;;;;;60.83;39.45;;;;;;;6.72;79.80;96560.89;1723735;81;21467;-76
2021/04/19 08:43:19;;;;;;;55.90;40.45;;;;;;;6.73;79.41;96562.51;1720907;81;21105;-78
2021/04/19 08:45:45;;;;;;;58.92;41.68;;;;;;;6.68;79.27;96557.81;1727366;81;21306;-79
2021/04/19 08:48:14;;;;;;;49.83;35.65;;;;;;;6.66;79.32;96561.00;1731801;81;21244;-76
2021/04/19 08:50:44;;;;;;;63.23;42.88;;;;;;;6.65;79.26;96564.55;1736049;81;21426;-78
2021/04/19 08:53:12;;;;;;;62.55;43.63;;;;;;;6.64;79.35;96556.47;1724800;82;21241;-77
2021/04/19 08:55:41;;;;;;;66.62;44.13;;;;;;;6.62;79.47;96559.21;1730862;81;21260;-76
2021/04/19 08:58:09;;;;;;;68.85;49.90;;;;;;;6.62;79.66;96560.50;1737448;81;21121;-80
2021/04/19 09:00:42;;;;;;;61.85;41.92;;;;;;;6.64;79.72;96560.34;1730657;81;21148;-78
2021/04/19 09:03:09;;;;;;;77.87;51.95;;;;;;;6.65;79.47;96559.38;1720629;81;21112;-77
2021/04/19 09:05:35;;;;;;;69.42;47.03;;;;;;;6.60;79.63;96556.45;1734171;81;21078;-82
2021/04/19 09:08:07;;;;;;;65.55;44.77;;;;;;;6.55;79.09;96559.98;1758654;80;21120;-76
2021/04/19 09:10:57;;;;;;;71.17;50.03;;;;;;;6.51;78.87;96554.33;1716837;82;21333;-76
2021/04/19 09:13:27;;;;;;;74.35;52.55;;;;;;;6.53;79.02;96563.20;1732908;81;21095;-78
2021/04/19 09:16:18;;;;;;;68.72;48.85;;;;;;;6.47;79.27;96561.21;1740556;80;21441;-78
2021/04/19 09:18:54;;;;;;;72.00;49.53;;;;;;;6.39;79.33;96565.05;1756208;81;21104;-79
2021/04/19 09:21:49;;;;;;;71.22;49.48;;;;;;;6.35;79.30;96564.55;1714667;82;21150;-77
2021/04/19 09:24:19;;;;;;;66.17;45.95;;;;;;;6.34;79.48;96560.31;1731231;81;21106;-78
2021/04/19 09:26:56;;;;;;;72.70;51.77;;;;;;;6.44;79.91;96555.06;1793604;77;22182;-76
2021/04/19 09:29:44;;;;;;;70.05;47.83;;;;;;;6.45;79.97;96554.10;1756093;79;21224;-77
2021/04/19 09:32:19;;;;;;;60.85;42.50;;;;;;;6.37;80.20;96530.84;1763424;79;21064;-80
2021/04/19 09:34:49;;;;;;;72.10;50.17;;;;;;;6.54;79.91;96553.20;1755762;79;21126;-76
2021/04/19 09:37:23;;;;;;;54.08;38.78;;;;;;;6.60;80.16;96553.39;1760674;79;21113;-78
2021/04/19 09:40:05;;;;;;;59.33;40.55;;;;;;;6.65;79.72;96559.86;1757200;79;21062;-78
2021/04/19 09:45:51;;;;;;;49.38;36.05;;;;;;;6.69;79.33;96555.55;1802117;78;23072;-76
2021/04/19 09:48:31;;;;;;;52.15;35.43;;;;;;;6.70;79.38;96556.36;1726439;82;21105;-78
2021/04/19 09:51:02;;;;;;;51.53;36.95;;;;;;;6.73;79.42;96562.02;1722866;82;21225;-77
2021/04/19 09:53:33;;;;;;;50.12;35.15;;;;;;;6.73;79.36;96558.16;1725591;82;21298;-77
2021/04/19 09:55:59;;;;;;;49.90;33.45;;;;;;;6.76;79.33;96553.97;1716551;81;21214;-76
2021/04/19 09:58:25;;;;;;;48.38;32.38;;;;;;;6.81;79.48;96552.20;1702566;83;21110;-76
2021/04/19 10:00:56;;;;;;;39.63;30.45;;;;;;;6.82;79.47;96554.63;1707085;81;21129;-76
2021/04/19 10:03:22;;;;;;;41.33;29.05;;;;;;;6.85;79.40;96549.66;1715549;83;21150;-78
2021/04/19 10:05:49;;;;;;;37.00;27.07;;;;;;;6.93;79.46;96553.56;1718410;81;21157;-77
2021/04/19 10:08:16;;;;;;;35.73;25.92;;;;;;;7.04;79.42;96548.13;1723320;81;21368;-78
2021/04/19 10:10:42;;;;;;;36.25;25.00;;;;;;;7.15;79.34;96547.02;1723918;81;21340;-77
2021/04/19 10:13:08;;;;;;;34.50;24.82;;;;;;;7.28;79.46;96544.81;1723700;81;21494;-77
2021/04/19 10:15:34;;;;;;;33.10;24.18;;;;;;;7.50;79.64;96540.84;1704766;83;21483;-78
2021/04/19 10:18:10;;;;;;;45.67;31.93;;;;;;;7.76;79.76;96532.47;1744400;81;21268;-80
2021/04/19 10:20:37;;;;;;;35.13;26.97;;;;;;;8.02;79.58;96537.99;1738989;81;21142;-77
2021/04/19 10:23:14;;;;;;;37.08;28.10;;;;;;;8.17;79.09;96532.98;1728868;82;21137;-77
2021/04/19 10:25:51;;;;;;;41.55;31.10;;;;;;;8.24;79.41;96532.16;1733089;82;21443;-77
2021/04/19 10:28:41;;;;;;;47.58;34.40;;;;;;;8.34;79.14;96535.91;1713153;82;21307;-78
2021/04/19 10:31:19;;;;;;;43.40;33.00;;;;;;;8.39;78.71;96531.03;1718967;82;21114;-76
2021/04/19 10:33:51;;;;;;;44.50;33.23;;;;;;;8.45;78.64;96529.56;1719141;82;21083;-83
2021/04/19 10:36:22;;;;;;;48.10;35.43;;;;;;;8.52;78.33;96530.05;1725727;82;21130;-79
2021/04/19 10:38:55;;;;;;;48.00;35.90;;;;;;;8.52;78.44;96528.75;1710008;82;21195;-76
2021/04/19 10:41:32;;;;;;;48.63;35.60;;;;;;;8.39;78.00;96530.55;1720010;82;21244;-79
2021/04/19 10:43:59;;;;;;;41.90;32.20;;;;;;;8.32;78.05;96534.75;1717409;82;21150;-79
2021/04/19 10:46:36;;;;;;;40.55;30.75;;;;;;;8.29;77.98;96532.45;1704547;83;21107;-80
2021/04/19 10:49:02;;;;;;;43.17;34.20;;;;;;;8.32;77.96;96527.47;1694020;83;21281;-79
2021/04/19 10:51:36;;;;;;;34.83;27.75;;;;;;;8.38;77.99;96523.75;1701251;83;21083;-80
2021/04/19 10:54:08;;;;;;;35.45;27.55;;;;;;;8.43;78.10;96525.35;1706406;83;21330;-77
2021/04/19 10:56:35;;;;;;;36.77;28.25;;;;;;;8.52;78.11;96516.29;1704684;83;21265;-77
2021/04/19 10:59:08;;;;;;;34.73;27.05;;;;;;;8.53;77.93;96521.30;1695114;83;21341;-77
2021/04/19 11:01:37;;;;;;;37.80;29.50;;;;;;;8.55;77.91;96521.13;1690820;83;21318;-77
2021/04/19 11:04:06;;;;;;;32.00;24.72;;;;;;;8.43;77.69;96524.06;1710498;83;21338;-79
2021/04/19 11:06:34;;;;;;;29.72;23.80;;;;;;;8.38;77.86;96520.36;1708410;83;21140;-77
2021/04/19 11:09:17;;;;;;;28.62;22.13;;;;;;;8.35;77.81;96516.32;1694291;83;21107;-76
2021/04/19 11:11:48;;;;;;;24.25;20.82;;;;;;;8.35;77.47;96513.73;1634977;81;21156;-76
2021/04/19 11:14:20;;;;;;;23.67;19.67;;;;;;;8.27;77.26;96513.70;1756919;80;21325;-80
2021/04/19 11:17:00;;;;;;;23.57;18.95;;;;;;;8.17;77.06;96510.49;1738898;80;21102;-80
2021/04/19 11:19:44;;;;;;;26.87;20.35;;;;;;;8.02;76.97;96508.23;1746133;80;21252;-77
2021/04/19 11:22:26;;;;;;;27.35;20.75;;;;;;;7.89;77.12;96509.20;1739760;80;21097;-78
2021/04/19 11:24:54;;;;;;;;;;;;;;;7.82;77.26;96505.17;1751731;80;21313;-78
2021/04/19 11:27:26;;;;;;;25.82;19.37;;;;;;;7.80;77.12;96509.67;1741988;80;20208;-78
2021/04/19 11:29:52;;;;;;;28.32;21.62;;;;;;;7.72;77.14;96505.31;1742950;80;21240;-80
2021/04/19 11:32:32;;;;;;;30.05;22.82;;;;;;;7.67;77.08;96506.29;1739934;80;21309;-80
2021/04/19 11:35:00;;;;;;;27.50;22.17;;;;;;;7.60;77.27;96498.02;1747863;80;21129;-79
2021/04/19 11:37:32;;;;;;;29.05;23.18;;;;;;;7.56;77.45;96502.71;1750082;80;21213;-79
2021/04/19 11:40:04;;;;;;;31.77;23.83;;;;;;;7.47;77.44;96504.46;1684663;83;21154;-76
2021/04/19 11:42:35;;;;;;;34.20;23.92;;;;;;;7.41;77.61;96503.00;1745353;80;21104;-79
2021/04/19 11:45:04;;;;;;;29.57;22.93;;;;;;;7.37;77.62;96505.59;1753040;80;21156;-79
2021/04/19 11:47:32;;;;;;;31.90;24.37;;;;;;;7.33;77.52;96501.23;1740340;80;21094;-76